Etusivu
METAR-TAF:

METAR-TAF

Lentoasemat :

Dawson Community Airport

Glendive, Montana, Yhdysvallat

Leveyspiiri: 47-08N, Pituuspiiri: 104-48W, korkeus merenpinnasta: 749 m

Tämänhetkinen sää

Tämä raportti tehtiin 29 minuuttia sitten, kello 05.56 UTC
Tuuli 6 kn etelästä/lounaasta
Lämpötila 5°C
Kosteus 65%
Ilmanpaine 1015 hPa
Näkyvyys: 16.1 km
selkeää

METAR: KGDV 210556Z AUTO 21006KT 10SM CLR 05/M01 A2998 RMK AO2 SLP164 T00501011 10150 20044 53002

Aika: 00:25 (06:25 UTC)

Sääennuste

Tämä raportti tehtiin 1 tunti ja 5 minuuttia sitten, kello 05.20 UTC
Ennuste voimassa 21. päivästä klo 06 UTC - 22. päivään klo 06 UTC
Tuuli 7 kn lännestä
Näkyvyys: 10 km
selkeää
From 21. päivästä klo 0900 UTC
Tuuli 8 kn pohjoisen/luoteesta
Näkyvyys: 10 km
selkeää
From 22. päivästä klo 0500 UTC
Tuuli 3 kn eri suunnista
Näkyvyys: 10 km
selkeää

TAF: KGDV 210520Z 2106/2206 26007KT P6SM SKC FM210900 33008KT P6SM SKC FM220500 VRB03KT P6SM SKC

Säähavainnot ja -ennusteet yli 4000 lentoasemalta (METAR- ja TAF-raportit).

Käytössä olevat sääasemat on merkitty karttaan keltaisilla ja punaisilla pisteillä.

Aseta hiiri pisteen päälle nähdäksesi sääaseman nimen.

Klikkaa sitten nähdäksesi säähavainnot ja -ennusteet.

Kartan vaihtaminen: klikkaa mustalla rastilla varustettuja vihreitä pisteitä, niin voit zoomata sisään; viivalla varustettua vihreää pistettä, niin voit zoomata ulos tai vihreitä nuolia, niin pääset viereisille kartoille.


METAR-TAF: